sensor_id;sensor_type;location;lat;lon;timestamp;P1;durP1;ratioP1;P2;durP2;ratioP2
66575;SDS011;53428;47.686;16.584;2023-08-24T00:01:47;10.20;;;8.63;;
66575;SDS011;53428;47.686;16.584;2023-08-24T00:06:46;8.80;;;7.15;;
66575;SDS011;53428;47.686;16.584;2023-08-24T00:11:45;12.40;;;7.68;;
66575;SDS011;53428;47.686;16.584;2023-08-24T00:16:45;10.93;;;7.60;;
66575;SDS011;53428;47.686;16.584;2023-08-24T00:21:44;11.43;;;7.75;;
66575;SDS011;53428;47.686;16.584;2023-08-24T00:26:43;9.70;;;7.53;;
66575;SDS011;53428;47.686;16.584;2023-08-24T00:31:43;12.63;;;8.43;;
66575;SDS011;53428;47.686;16.584;2023-08-24T00:36:42;15.63;;;8.50;;
66575;SDS011;53428;47.686;16.584;2023-08-24T00:41:42;9.48;;;7.35;;
66575;SDS011;53428;47.686;16.584;2023-08-24T00:46:41;10.77;;;9.00;;
66575;SDS011;53428;47.686;16.584;2023-08-24T00:51:41;10.02;;;7.88;;
66575;SDS011;53428;47.686;16.584;2023-08-24T00:56:40;10.85;;;8.40;;
66575;SDS011;53428;47.686;16.584;2023-08-24T01:01:40;10.68;;;8.50;;
66575;SDS011;53428;47.686;16.584;2023-08-24T01:06:42;12.50;;;9.00;;
66575;SDS011;53428;47.686;16.584;2023-08-24T01:17:01;14.95;;;10.10;;
66575;SDS011;53428;47.686;16.584;2023-08-24T01:22:05;14.95;;;9.25;;
66575;SDS011;53428;47.686;16.584;2023-08-24T01:27:12;9.82;;;8.80;;
66575;SDS011;53428;47.686;16.584;2023-08-24T01:32:12;10.30;;;9.15;;
66575;SDS011;53428;47.686;16.584;2023-08-24T01:37:12;12.05;;;8.30;;
66575;SDS011;53428;47.686;16.584;2023-08-24T01:42:14;11.50;;;9.30;;
66575;SDS011;53428;47.686;16.584;2023-08-24T01:47:18;13.00;;;10.18;;
66575;SDS011;53428;47.686;16.584;2023-08-24T01:52:20;12.48;;;9.15;;
66575;SDS011;53428;47.686;16.584;2023-08-24T01:57:20;11.77;;;8.75;;
66575;SDS011;53428;47.686;16.584;2023-08-24T02:02:20;16.38;;;10.10;;
66575;SDS011;53428;47.686;16.584;2023-08-24T02:07:20;12.32;;;9.13;;
66575;SDS011;53428;47.686;16.584;2023-08-24T02:12:19;20.25;;;9.60;;
66575;SDS011;53428;47.686;16.584;2023-08-24T02:17:19;14.95;;;9.52;;
66575;SDS011;53428;47.686;16.584;2023-08-24T02:22:18;16.00;;;8.48;;
66575;SDS011;53428;47.686;16.584;2023-08-24T02:27:17;14.15;;;8.48;;
66575;SDS011;53428;47.686;16.584;2023-08-24T02:32:17;12.60;;;9.05;;
66575;SDS011;53428;47.686;16.584;2023-08-24T02:37:16;17.23;;;9.15;;
66575;SDS011;53428;47.686;16.584;2023-08-24T02:42:16;12.02;;;9.60;;
66575;SDS011;53428;47.686;16.584;2023-08-24T02:47:15;14.15;;;9.27;;
66575;SDS011;53428;47.686;16.584;2023-08-24T02:52:14;13.27;;;9.25;;
66575;SDS011;53428;47.686;16.584;2023-08-24T02:57:13;17.05;;;10.30;;
66575;SDS011;53428;47.686;16.584;2023-08-24T03:02:13;17.85;;;9.90;;
66575;SDS011;53428;47.686;16.584;2023-08-24T03:07:12;19.85;;;9.98;;
66575;SDS011;53428;47.686;16.584;2023-08-24T03:12:11;13.77;;;9.93;;
66575;SDS011;53428;47.686;16.584;2023-08-24T03:17:11;12.00;;;10.50;;
66575;SDS011;53428;47.686;16.584;2023-08-24T03:22:10;16.98;;;10.63;;
66575;SDS011;53428;47.686;16.584;2023-08-24T03:27:09;15.50;;;9.85;;
66575;SDS011;53428;47.686;16.584;2023-08-24T03:32:08;13.15;;;10.52;;
66575;SDS011;53428;47.686;16.584;2023-08-24T03:37:08;17.02;;;10.02;;
66575;SDS011;53428;47.686;16.584;2023-08-24T03:42:07;20.25;;;10.52;;
66575;SDS011;53428;47.686;16.584;2023-08-24T03:47:06;20.77;;;10.73;;
66575;SDS011;53428;47.686;16.584;2023-08-24T03:52:05;15.20;;;11.20;;
66575;SDS011;53428;47.686;16.584;2023-08-24T03:57:05;14.73;;;11.43;;
66575;SDS011;53428;47.686;16.584;2023-08-24T04:02:04;14.10;;;10.32;;
66575;SDS011;53428;47.686;16.584;2023-08-24T04:07:03;22.55;;;11.10;;
66575;SDS011;53428;47.686;16.584;2023-08-24T04:12:02;14.70;;;11.38;;
66575;SDS011;53428;47.686;16.584;2023-08-24T04:17:02;11.82;;;10.15;;
66575;SDS011;53428;47.686;16.584;2023-08-24T04:22:01;13.52;;;11.68;;
66575;SDS011;53428;47.686;16.584;2023-08-24T04:27:00;15.05;;;10.48;;
66575;SDS011;53428;47.686;16.584;2023-08-24T04:32:00;16.05;;;11.18;;
66575;SDS011;53428;47.686;16.584;2023-08-24T04:36:59;17.88;;;11.63;;
66575;SDS011;53428;47.686;16.584;2023-08-24T04:42:00;14.20;;;10.65;;
66575;SDS011;53428;47.686;16.584;2023-08-24T04:47:01;11.70;;;10.52;;
66575;SDS011;53428;47.686;16.584;2023-08-24T04:52:00;17.15;;;12.52;;
66575;SDS011;53428;47.686;16.584;2023-08-24T04:56:59;20.27;;;11.48;;
66575;SDS011;53428;47.686;16.584;2023-08-24T05:01:58;16.50;;;11.30;;
66575;SDS011;53428;47.686;16.584;2023-08-24T05:06:58;18.25;;;12.48;;
66575;SDS011;53428;47.686;16.584;2023-08-24T05:11:57;19.42;;;10.52;;
66575;SDS011;53428;47.686;16.584;2023-08-24T05:16:57;16.70;;;11.45;;
66575;SDS011;53428;47.686;16.584;2023-08-24T05:21:56;21.02;;;10.48;;
66575;SDS011;53428;47.686;16.584;2023-08-24T05:26:55;16.80;;;11.73;;
66575;SDS011;53428;47.686;16.584;2023-08-24T05:31:54;23.33;;;9.98;;
66575;SDS011;53428;47.686;16.584;2023-08-24T05:36:54;20.10;;;11.68;;
66575;SDS011;53428;47.686;16.584;2023-08-24T05:41:53;15.65;;;10.65;;
66575;SDS011;53428;47.686;16.584;2023-08-24T05:46:52;11.20;;;10.00;;
66575;SDS011;53428;47.686;16.584;2023-08-24T05:51:52;13.48;;;10.20;;
66575;SDS011;53428;47.686;16.584;2023-08-24T05:56:51;15.98;;;10.38;;
66575;SDS011;53428;47.686;16.584;2023-08-24T06:01:51;13.80;;;9.93;;
66575;SDS011;53428;47.686;16.584;2023-08-24T06:06:50;16.88;;;10.07;;
66575;SDS011;53428;47.686;16.584;2023-08-24T06:11:50;12.50;;;9.25;;
66575;SDS011;53428;47.686;16.584;2023-08-24T06:16:49;10.80;;;9.20;;
66575;SDS011;53428;47.686;16.584;2023-08-24T06:21:49;12.60;;;9.35;;
66575;SDS011;53428;47.686;16.584;2023-08-24T06:26:48;14.57;;;8.70;;
66575;SDS011;53428;47.686;16.584;2023-08-24T06:31:47;13.57;;;8.73;;
66575;SDS011;53428;47.686;16.584;2023-08-24T06:36:47;12.95;;;8.75;;
66575;SDS011;53428;47.686;16.584;2023-08-24T06:41:46;11.00;;;7.75;;
66575;SDS011;53428;47.686;16.584;2023-08-24T06:46:45;16.38;;;8.88;;
66575;SDS011;53428;47.686;16.584;2023-08-24T06:51:45;12.52;;;8.90;;
66575;SDS011;53428;47.686;16.584;2023-08-24T06:56:44;9.57;;;8.23;;
66575;SDS011;53428;47.686;16.584;2023-08-24T07:01:44;14.48;;;8.55;;
66575;SDS011;53428;47.686;16.584;2023-08-24T07:06:43;13.93;;;8.98;;
66575;SDS011;53428;47.686;16.584;2023-08-24T07:11:42;24.80;;;8.35;;
66575;SDS011;53428;47.686;16.584;2023-08-24T07:16:42;16.65;;;8.30;;
66575;SDS011;53428;47.686;16.584;2023-08-24T07:21:41;10.77;;;8.63;;
66575;SDS011;53428;47.686;16.584;2023-08-24T07:26:41;11.88;;;8.15;;
66575;SDS011;53428;47.686;16.584;2023-08-24T07:31:40;11.02;;;7.43;;
66575;SDS011;53428;47.686;16.584;2023-08-24T07:36:40;11.50;;;7.35;;
66575;SDS011;53428;47.686;16.584;2023-08-24T07:41:39;16.27;;;8.38;;
66575;SDS011;53428;47.686;16.584;2023-08-24T07:46:38;7.38;;;6.55;;
66575;SDS011;53428;47.686;16.584;2023-08-24T07:51:38;9.93;;;6.75;;
66575;SDS011;53428;47.686;16.584;2023-08-24T07:56:38;10.18;;;8.73;;
66575;SDS011;53428;47.686;16.584;2023-08-24T08:01:37;9.55;;;6.68;;
66575;SDS011;53428;47.686;16.584;2023-08-24T08:06:36;11.23;;;7.68;;
66575;SDS011;53428;47.686;16.584;2023-08-24T08:11:36;8.75;;;7.18;;
66575;SDS011;53428;47.686;16.584;2023-08-24T08:16:35;12.40;;;8.88;;
66575;SDS011;53428;47.686;16.584;2023-08-24T08:21:35;13.82;;;8.57;;
66575;SDS011;53428;47.686;16.584;2023-08-24T08:26:34;10.15;;;6.63;;
66575;SDS011;53428;47.686;16.584;2023-08-24T08:31:34;10.75;;;7.63;;
66575;SDS011;53428;47.686;16.584;2023-08-24T08:36:34;9.15;;;7.30;;
66575;SDS011;53428;47.686;16.584;2023-08-24T08:41:38;12.75;;;8.93;;
66575;SDS011;53428;47.686;16.584;2023-08-24T08:46:41;8.77;;;7.28;;
66575;SDS011;53428;47.686;16.584;2023-08-24T08:51:41;9.43;;;7.07;;
66575;SDS011;53428;47.686;16.584;2023-08-24T08:56:41;10.23;;;6.85;;
66575;SDS011;53428;47.686;16.584;2023-08-24T09:01:41;9.38;;;7.57;;
66575;SDS011;53428;47.686;16.584;2023-08-24T09:06:42;13.48;;;7.55;;
66575;SDS011;53428;47.686;16.584;2023-08-24T09:11:43;8.65;;;6.40;;
66575;SDS011;53428;47.686;16.584;2023-08-24T09:16:46;10.35;;;7.05;;
66575;SDS011;53428;47.686;16.584;2023-08-24T09:21:45;7.10;;;6.40;;
66575;SDS011;53428;47.686;16.584;2023-08-24T09:26:44;8.63;;;5.80;;
66575;SDS011;53428;47.686;16.584;2023-08-24T09:31:44;7.22;;;5.75;;
66575;SDS011;53428;47.686;16.584;2023-08-24T09:36:44;14.60;;;6.28;;
66575;SDS011;53428;47.686;16.584;2023-08-24T09:41:43;6.47;;;5.63;;
66575;SDS011;53428;47.686;16.584;2023-08-24T09:46:43;7.68;;;5.18;;
66575;SDS011;53428;47.686;16.584;2023-08-24T09:51:43;12.48;;;6.28;;
66575;SDS011;53428;47.686;16.584;2023-08-24T09:56:44;6.43;;;5.30;;
66575;SDS011;53428;47.686;16.584;2023-08-24T10:01:48;7.22;;;5.00;;
66575;SDS011;53428;47.686;16.584;2023-08-24T10:06:48;9.23;;;5.50;;
66575;SDS011;53428;47.686;16.584;2023-08-24T10:11:56;9.80;;;5.65;;
66575;SDS011;53428;47.686;16.584;2023-08-24T10:16:59;10.20;;;5.85;;
66575;SDS011;53428;47.686;16.584;2023-08-24T10:21:59;9.20;;;5.10;;
66575;SDS011;53428;47.686;16.584;2023-08-24T10:27:00;8.05;;;5.65;;
66575;SDS011;53428;47.686;16.584;2023-08-24T10:32:01;7.68;;;4.88;;
66575;SDS011;53428;47.686;16.584;2023-08-24T10:37:08;6.13;;;5.00;;
66575;SDS011;53428;47.686;16.584;2023-08-24T10:42:12;7.93;;;4.85;;
66575;SDS011;53428;47.686;16.584;2023-08-24T10:47:21;8.15;;;4.78;;
66575;SDS011;53428;47.686;16.584;2023-08-24T10:52:23;5.65;;;5.10;;
66575;SDS011;53428;47.686;16.584;2023-08-24T10:57:27;13.40;;;4.55;;
66575;SDS011;53428;47.686;16.584;2023-08-24T11:02:46;9.60;;;4.95;;
66575;SDS011;53428;47.686;16.584;2023-08-24T11:07:57;7.28;;;4.80;;
66575;SDS011;53428;47.686;16.584;2023-08-24T11:23:18;12.98;;;5.32;;
66575;SDS011;53428;47.686;16.584;2023-08-24T11:28:19;7.85;;;4.00;;
66575;SDS011;53428;47.686;16.584;2023-08-24T11:33:28;5.40;;;4.18;;
66575;SDS011;53428;47.686;16.584;2023-08-24T11:38:35;6.40;;;4.00;;
66575;SDS011;53428;47.686;16.584;2023-08-24T11:43:42;4.68;;;3.90;;
66575;SDS011;53428;47.686;16.584;2023-08-24T11:48:42;6.93;;;3.92;;
66575;SDS011;53428;47.686;16.584;2023-08-24T11:53:43;8.55;;;4.30;;
66575;SDS011;53428;47.686;16.584;2023-08-24T11:58:43;8.70;;;4.38;;
66575;SDS011;53428;47.686;16.584;2023-08-24T12:03:49;5.38;;;4.38;;
66575;SDS011;53428;47.686;16.584;2023-08-24T12:08:48;9.00;;;4.32;;
66575;SDS011;53428;47.686;16.584;2023-08-24T12:13:49;5.55;;;4.32;;
66575;SDS011;53428;47.686;16.584;2023-08-24T12:18:53;6.95;;;4.18;;
66575;SDS011;53428;47.686;16.584;2023-08-24T12:23:58;7.55;;;4.85;;
66575;SDS011;53428;47.686;16.584;2023-08-24T12:29:05;8.23;;;4.30;;
66575;SDS011;53428;47.686;16.584;2023-08-24T12:34:06;5.22;;;4.72;;
66575;SDS011;53428;47.686;16.584;2023-08-24T12:39:12;10.70;;;4.68;;
66575;SDS011;53428;47.686;16.584;2023-08-24T12:44:12;18.58;;;5.22;;
66575;SDS011;53428;47.686;16.584;2023-08-24T12:49:12;7.40;;;4.40;;
66575;SDS011;53428;47.686;16.584;2023-08-24T12:54:11;8.43;;;5.28;;
66575;SDS011;53428;47.686;16.584;2023-08-24T12:59:11;7.40;;;4.00;;
66575;SDS011;53428;47.686;16.584;2023-08-24T13:04:10;8.95;;;4.75;;
66575;SDS011;53428;47.686;16.584;2023-08-24T13:09:10;10.02;;;5.13;;
66575;SDS011;53428;47.686;16.584;2023-08-24T13:14:10;10.85;;;4.63;;
66575;SDS011;53428;47.686;16.584;2023-08-24T13:19:10;8.43;;;3.83;;
66575;SDS011;53428;47.686;16.584;2023-08-24T13:24:09;7.68;;;4.57;;
66575;SDS011;53428;47.686;16.584;2023-08-24T13:29:08;5.03;;;4.53;;
66575;SDS011;53428;47.686;16.584;2023-08-24T13:34:07;5.43;;;4.30;;
66575;SDS011;53428;47.686;16.584;2023-08-24T13:39:07;7.90;;;4.25;;
66575;SDS011;53428;47.686;16.584;2023-08-24T13:44:08;7.45;;;4.72;;
66575;SDS011;53428;47.686;16.584;2023-08-24T13:49:07;6.53;;;4.53;;
66575;SDS011;53428;47.686;16.584;2023-08-24T13:54:14;4.25;;;3.85;;
66575;SDS011;53428;47.686;16.584;2023-08-24T13:59:15;5.03;;;4.18;;
66575;SDS011;53428;47.686;16.584;2023-08-24T14:04:14;5.97;;;4.60;;
66575;SDS011;53428;47.686;16.584;2023-08-24T14:09:14;5.82;;;4.35;;
66575;SDS011;53428;47.686;16.584;2023-08-24T14:14:13;6.72;;;4.38;;
66575;SDS011;53428;47.686;16.584;2023-08-24T14:19:13;8.90;;;4.75;;
66575;SDS011;53428;47.686;16.584;2023-08-24T14:24:12;8.07;;;4.20;;
66575;SDS011;53428;47.686;16.584;2023-08-24T14:29:12;6.85;;;4.70;;
66575;SDS011;53428;47.686;16.584;2023-08-24T14:34:12;4.63;;;4.22;;
66575;SDS011;53428;47.686;16.584;2023-08-24T14:39:12;4.28;;;3.88;;
66575;SDS011;53428;47.686;16.584;2023-08-24T14:44:12;7.30;;;3.83;;
66575;SDS011;53428;47.686;16.584;2023-08-24T14:49:11;5.00;;;3.67;;
66575;SDS011;53428;47.686;16.584;2023-08-24T14:54:10;11.05;;;3.90;;
66575;SDS011;53428;47.686;16.584;2023-08-24T14:59:12;6.70;;;5.13;;
66575;SDS011;53428;47.686;16.584;2023-08-24T15:04:12;10.13;;;4.55;;
66575;SDS011;53428;47.686;16.584;2023-08-24T15:09:11;10.38;;;4.35;;
66575;SDS011;53428;47.686;16.584;2023-08-24T15:14:10;5.85;;;4.60;;
66575;SDS011;53428;47.686;16.584;2023-08-24T15:19:10;5.43;;;4.28;;
66575;SDS011;53428;47.686;16.584;2023-08-24T15:29:11;5.20;;;4.70;;
66575;SDS011;53428;47.686;16.584;2023-08-24T15:34:16;7.65;;;4.60;;
66575;SDS011;53428;47.686;16.584;2023-08-24T15:44:15;7.40;;;5.20;;
66575;SDS011;53428;47.686;16.584;2023-08-24T15:49:15;11.07;;;4.95;;
66575;SDS011;53428;47.686;16.584;2023-08-24T15:54:14;6.00;;;4.50;;
66575;SDS011;53428;47.686;16.584;2023-08-24T15:59:17;14.40;;;5.32;;
66575;SDS011;53428;47.686;16.584;2023-08-24T16:04:17;19.15;;;5.20;;
66575;SDS011;53428;47.686;16.584;2023-08-24T16:09:16;6.80;;;4.90;;
66575;SDS011;53428;47.686;16.584;2023-08-24T16:14:16;5.55;;;4.90;;
66575;SDS011;53428;47.686;16.584;2023-08-24T16:19:15;9.13;;;5.00;;
66575;SDS011;53428;47.686;16.584;2023-08-24T16:24:15;5.63;;;4.82;;
66575;SDS011;53428;47.686;16.584;2023-08-24T16:29:15;10.98;;;5.88;;
66575;SDS011;53428;47.686;16.584;2023-08-24T16:34:14;5.68;;;5.13;;
66575;SDS011;53428;47.686;16.584;2023-08-24T16:39:13;6.05;;;4.68;;
66575;SDS011;53428;47.686;16.584;2023-08-24T16:44:13;5.50;;;4.72;;
66575;SDS011;53428;47.686;16.584;2023-08-24T16:49:12;14.68;;;5.68;;
66575;SDS011;53428;47.686;16.584;2023-08-24T16:54:12;8.60;;;5.57;;
66575;SDS011;53428;47.686;16.584;2023-08-24T16:59:11;10.52;;;5.32;;
66575;SDS011;53428;47.686;16.584;2023-08-24T17:04:10;10.77;;;5.35;;
66575;SDS011;53428;47.686;16.584;2023-08-24T17:09:10;8.43;;;5.25;;
66575;SDS011;53428;47.686;16.584;2023-08-24T17:14:09;11.77;;;5.68;;
66575;SDS011;53428;47.686;16.584;2023-08-24T17:19:09;7.05;;;5.47;;
66575;SDS011;53428;47.686;16.584;2023-08-24T17:24:08;7.13;;;5.93;;
66575;SDS011;53428;47.686;16.584;2023-08-24T17:29:08;9.88;;;6.55;;
66575;SDS011;53428;47.686;16.584;2023-08-24T17:34:07;11.10;;;5.63;;
66575;SDS011;53428;47.686;16.584;2023-08-24T17:39:06;9.88;;;5.82;;
66575;SDS011;53428;47.686;16.584;2023-08-24T17:44:06;8.40;;;6.05;;
66575;SDS011;53428;47.686;16.584;2023-08-24T17:49:06;9.05;;;6.05;;
66575;SDS011;53428;47.686;16.584;2023-08-24T17:54:06;6.03;;;5.43;;
66575;SDS011;53428;47.686;16.584;2023-08-24T17:59:05;13.75;;;6.43;;
66575;SDS011;53428;47.686;16.584;2023-08-24T18:04:05;14.13;;;6.15;;
66575;SDS011;53428;47.686;16.584;2023-08-24T18:09:04;13.77;;;6.95;;
66575;SDS011;53428;47.686;16.584;2023-08-24T18:14:06;9.02;;;6.20;;
66575;SDS011;53428;47.686;16.584;2023-08-24T18:19:08;10.80;;;6.43;;
66575;SDS011;53428;47.686;16.584;2023-08-24T18:24:09;12.95;;;6.72;;
66575;SDS011;53428;47.686;16.584;2023-08-24T18:29:09;7.85;;;5.95;;
66575;SDS011;53428;47.686;16.584;2023-08-24T18:34:09;16.48;;;7.00;;
66575;SDS011;53428;47.686;16.584;2023-08-24T18:39:12;9.05;;;6.50;;
66575;SDS011;53428;47.686;16.584;2023-08-24T18:44:12;6.95;;;6.25;;
66575;SDS011;53428;47.686;16.584;2023-08-24T18:49:12;8.73;;;6.05;;
66575;SDS011;53428;47.686;16.584;2023-08-24T18:54:15;8.30;;;6.22;;
66575;SDS011;53428;47.686;16.584;2023-08-24T18:59:14;7.20;;;6.28;;
66575;SDS011;53428;47.686;16.584;2023-08-24T19:04:14;10.30;;;6.32;;
66575;SDS011;53428;47.686;16.584;2023-08-24T19:09:14;11.05;;;5.93;;
66575;SDS011;53428;47.686;16.584;2023-08-24T19:14:14;7.22;;;5.65;;
66575;SDS011;53428;47.686;16.584;2023-08-24T19:19:13;11.77;;;5.90;;
66575;SDS011;53428;47.686;16.584;2023-08-24T19:24:13;9.25;;;5.88;;
66575;SDS011;53428;47.686;16.584;2023-08-24T19:29:14;11.32;;;6.97;;
66575;SDS011;53428;47.686;16.584;2023-08-24T19:34:14;8.90;;;6.50;;
66575;SDS011;53428;47.686;16.584;2023-08-24T19:39:14;10.52;;;6.38;;
66575;SDS011;53428;47.686;16.584;2023-08-24T19:44:14;8.27;;;6.07;;
66575;SDS011;53428;47.686;16.584;2023-08-24T19:49:13;15.68;;;6.90;;
66575;SDS011;53428;47.686;16.584;2023-08-24T19:54:14;10.55;;;7.32;;
66575;SDS011;53428;47.686;16.584;2023-08-24T19:59:13;9.10;;;6.18;;
66575;SDS011;53428;47.686;16.584;2023-08-24T20:04:13;10.57;;;5.75;;
66575;SDS011;53428;47.686;16.584;2023-08-24T20:09:14;8.75;;;7.18;;
66575;SDS011;53428;47.686;16.584;2023-08-24T20:14:13;15.13;;;7.15;;
66575;SDS011;53428;47.686;16.584;2023-08-24T20:19:13;13.80;;;7.05;;
66575;SDS011;53428;47.686;16.584;2023-08-24T20:24:12;7.53;;;6.40;;
66575;SDS011;53428;47.686;16.584;2023-08-24T20:29:12;11.25;;;6.43;;
66575;SDS011;53428;47.686;16.584;2023-08-24T20:34:12;10.60;;;6.57;;
66575;SDS011;53428;47.686;16.584;2023-08-24T20:39:11;11.40;;;6.82;;
66575;SDS011;53428;47.686;16.584;2023-08-24T20:44:11;10.60;;;6.82;;
66575;SDS011;53428;47.686;16.584;2023-08-24T20:49:11;12.23;;;6.95;;
66575;SDS011;53428;47.686;16.584;2023-08-24T20:54:10;14.48;;;7.43;;
66575;SDS011;53428;47.686;16.584;2023-08-24T20:59:10;19.00;;;7.60;;
66575;SDS011;53428;47.686;16.584;2023-08-24T21:04:09;9.90;;;7.32;;
66575;SDS011;53428;47.686;16.584;2023-08-24T21:09:09;7.88;;;7.18;;
66575;SDS011;53428;47.686;16.584;2023-08-24T21:14:08;7.63;;;6.57;;
66575;SDS011;53428;47.686;16.584;2023-08-24T21:19:07;12.50;;;7.25;;
66575;SDS011;53428;47.686;16.584;2023-08-24T21:24:07;10.32;;;7.43;;
66575;SDS011;53428;47.686;16.584;2023-08-24T21:29:06;12.10;;;7.93;;
66575;SDS011;53428;47.686;16.584;2023-08-24T21:34:05;13.57;;;8.02;;
66575;SDS011;53428;47.686;16.584;2023-08-24T21:39:05;10.73;;;7.60;;
66575;SDS011;53428;47.686;16.584;2023-08-24T21:44:05;8.68;;;7.53;;
66575;SDS011;53428;47.686;16.584;2023-08-24T21:49:04;9.30;;;7.82;;
66575;SDS011;53428;47.686;16.584;2023-08-24T21:54:04;12.55;;;7.82;;
66575;SDS011;53428;47.686;16.584;2023-08-24T21:59:04;14.35;;;8.40;;
66575;SDS011;53428;47.686;16.584;2023-08-24T22:04:03;14.20;;;7.70;;
66575;SDS011;53428;47.686;16.584;2023-08-24T22:09:02;8.85;;;7.55;;
66575;SDS011;53428;47.686;16.584;2023-08-24T22:14:02;12.50;;;8.15;;
66575;SDS011;53428;47.686;16.584;2023-08-24T22:19:01;12.63;;;6.95;;
66575;SDS011;53428;47.686;16.584;2023-08-24T22:24:01;12.40;;;8.15;;
66575;SDS011;53428;47.686;16.584;2023-08-24T22:29:02;12.40;;;7.65;;
66575;SDS011;53428;47.686;16.584;2023-08-24T22:34:01;10.43;;;7.43;;
66575;SDS011;53428;47.686;16.584;2023-08-24T22:39:02;12.02;;;7.13;;
66575;SDS011;53428;47.686;16.584;2023-08-24T22:44:02;11.05;;;7.60;;
66575;SDS011;53428;47.686;16.584;2023-08-24T22:49:02;13.52;;;7.55;;
66575;SDS011;53428;47.686;16.584;2023-08-24T22:54:04;9.15;;;7.97;;
66575;SDS011;53428;47.686;16.584;2023-08-24T22:59:04;11.93;;;6.88;;
66575;SDS011;53428;47.686;16.584;2023-08-24T23:04:04;10.10;;;6.78;;
66575;SDS011;53428;47.686;16.584;2023-08-24T23:09:03;13.90;;;7.70;;
66575;SDS011;53428;47.686;16.584;2023-08-24T23:14:04;9.30;;;7.57;;
66575;SDS011;53428;47.686;16.584;2023-08-24T23:19:03;12.15;;;7.80;;
66575;SDS011;53428;47.686;16.584;2023-08-24T23:24:02;15.88;;;7.95;;
66575;SDS011;53428;47.686;16.584;2023-08-24T23:29:02;11.85;;;7.10;;
66575;SDS011;53428;47.686;16.584;2023-08-24T23:34:02;8.27;;;7.25;;
66575;SDS011;53428;47.686;16.584;2023-08-24T23:39:01;12.10;;;7.15;;
66575;SDS011;53428;47.686;16.584;2023-08-24T23:44:01;10.38;;;7.07;;
66575;SDS011;53428;47.686;16.584;2023-08-24T23:49:00;9.57;;;7.88;;
66575;SDS011;53428;47.686;16.584;2023-08-24T23:53:59;16.83;;;8.05;;
66575;SDS011;53428;47.686;16.584;2023-08-24T23:58:59;9.68;;;6.90;;
